Time;durP1;ratioP1;P1;durP2;ratioP2;P2;SDS_P1;SDS_P2;PMS_P1;PMS_P2;Temp;Humidity;BMP_temperature;BMP_pressure;BME280_temperature;BME280_humidity;BME280_pressure;Samples;Min_cycle;Max_cycle;Signal;HPM_P1;HPM_P2
2022/04/06 00:01:30;;;;;;;7.00;3.20;;;;;;;8.56;63.76;97726.60;105729;1279;22549;-77
2022/04/06 00:03:56;;;;;;;7.50;4.00;;;;;;;8.56;63.91;97731.88;105766;1278;22730;-77
2022/04/06 00:06:23;;;;;;;7.40;4.20;;;;;;;8.58;63.95;97731.75;105727;1278;22524;-76
2022/04/06 00:08:50;;;;;;;7.70;4.20;;;;;;;8.58;63.92;97731.95;105792;1278;24341;-77
2022/04/06 00:11:17;;;;;;;7.50;4.10;;;;;;;8.57;63.92;97725.77;105780;1278;23832;-76
2022/04/06 00:13:44;;;;;;;8.90;4.10;;;;;;;8.57;64.03;97725.59;105795;1278;23481;-76
2022/04/06 00:16:10;;;;;;;8.10;4.60;;;;;;;8.58;64.11;97722.34;105748;1279;25354;-75
2022/04/06 00:18:37;;;;;;;8.10;4.80;;;;;;;8.59;64.15;97730.63;105750;1279;22583;-75
2022/04/06 00:21:04;;;;;;;8.30;4.70;;;;;;;8.59;64.12;97726.54;105756;1278;22575;-76
2022/04/06 00:23:30;;;;;;;8.10;4.10;;;;;;;8.58;64.18;97732.07;105737;1278;22579;-75
2022/04/06 00:25:57;;;;;;;7.80;4.40;;;;;;;8.58;64.24;97735.77;105742;1279;22538;-78
2022/04/06 00:28:24;;;;;;;8.40;4.50;;;;;;;8.59;64.14;97732.39;105743;1279;26628;-78
2022/04/06 00:30:51;;;;;;;8.90;4.90;;;;;;;8.58;64.28;97733.13;105731;1278;22651;-78
2022/04/06 00:33:17;;;;;;;8.20;4.50;;;;;;;8.58;64.08;97729.80;105773;1279;22831;-78
2022/04/06 00:35:44;;;;;;;9.00;4.60;;;;;;;8.58;64.29;97737.73;105787;1278;25340;-77
2022/04/06 00:38:11;;;;;;;8.20;4.40;;;;;;;8.58;64.18;97738.52;105783;1278;22559;-77
2022/04/06 00:40:37;;;;;;;7.70;4.70;;;;;;;8.56;64.31;97733.30;105785;1278;22557;-77
2022/04/06 00:43:10;;;;;;;7.80;4.20;;;;;;;8.58;64.45;97731.95;105713;1278;22586;-77
2022/04/06 00:45:39;;;;;;;6.90;3.40;;;;;;;8.61;64.60;97728.99;105642;1278;274119;-77
2022/04/06 00:48:07;;;;;;;7.20;3.60;;;;;;;8.65;64.60;97726.66;105928;1278;22856;-77
2022/04/06 00:50:34;;;;;;;7.30;3.80;;;;;;;8.72;64.68;97723.27;105730;1277;22544;-76
2022/04/06 00:53:02;;;;;;;7.50;3.90;;;;;;;8.77;64.67;97725.11;105749;1279;22537;-77
2022/04/06 00:55:35;;;;;;;7.90;4.00;;;;;;;8.83;64.65;97726.40;105776;1279;24616;-76
2022/04/06 00:58:04;;;;;;;5.90;3.00;;;;;;;8.88;64.73;97724.48;105794;1278;25554;-77
2022/04/06 01:00:31;;;;;;;7.20;3.60;;;;;;;8.93;64.64;97726.23;105716;1278;22535;-77
2022/04/06 01:02:58;;;;;;;6.90;3.60;;;;;;;8.96;64.51;97727.39;105757;1279;24362;-77
2022/04/06 01:05:26;;;;;;;6.90;3.80;;;;;;;8.98;64.58;97732.40;105777;1278;24247;-77
2022/04/06 01:07:56;;;;;;;7.10;3.40;;;;;;;9.00;64.57;97728.30;105772;1278;25276;-76
2022/04/06 01:10:22;;;;;;;6.10;3.40;;;;;;;9.03;64.71;97733.72;105817;1278;25497;-77
2022/04/06 01:12:50;;;;;;;6.60;3.50;;;;;;;9.05;64.57;97727.91;105750;1278;23571;-76
2022/04/06 01:15:17;;;;;;;5.80;2.80;;;;;;;9.06;64.63;97730.60;105736;1278;22527;-76
2022/04/06 01:17:44;;;;;;;5.80;2.60;;;;;;;9.08;64.57;97732.59;105689;1281;25275;-76
2022/04/06 01:20:13;;;;;;;5.90;2.90;;;;;;;9.10;64.49;97734.52;105609;1279;24329;-77
2022/04/06 01:22:40;;;;;;;6.20;3.00;;;;;;;9.11;64.65;97733.35;105784;1278;25531;-76
2022/04/06 01:25:07;;;;;;;5.40;2.90;;;;;;;9.13;64.59;97739.41;105765;1277;22584;-77
2022/04/06 01:27:35;;;;;;;5.60;2.30;;;;;;;9.14;64.71;97737.36;105734;1278;22606;-76
2022/04/06 01:30:03;;;;;;;4.40;2.00;;;;;;;9.15;64.68;97736.73;105727;1278;25263;-77
2022/04/06 01:32:35;;;;;;;5.20;2.10;;;;;;;9.16;64.69;97741.41;105742;1279;24433;-77
2022/04/06 01:35:04;;;;;;;6.00;2.80;;;;;;;9.15;64.64;97741.31;105746;1278;22547;-77
2022/04/06 01:37:31;;;;;;;5.20;2.20;;;;;;;9.13;64.65;97746.27;105801;1278;22573;-76
2022/04/06 01:39:58;;;;;;;4.70;1.90;;;;;;;9.12;64.82;97746.22;105722;1279;26642;-76
2022/04/06 01:42:25;;;;;;;5.80;2.40;;;;;;;9.13;64.74;97749.39;105689;1279;23969;-76
2022/04/06 01:44:52;;;;;;;5.30;2.50;;;;;;;9.12;64.73;97756.03;105736;1279;22537;-76
2022/04/06 01:47:20;;;;;;;5.40;2.20;;;;;;;9.09;64.73;97746.20;105775;1279;25550;-77
2022/04/06 01:52:34;;;;;;;5.50;2.10;;;;;;;9.02;64.79;97750.28;105714;1279;26453;-77
2022/04/06 01:55:10;;;;;;;5.20;2.00;;;;;;;9.00;64.79;97751.34;105651;1278;22585;-77
2022/04/06 01:57:37;;;;;;;5.10;2.00;;;;;;;8.98;65.02;97752.83;105789;1278;24224;-77
2022/04/06 02:00:16;;;;;;;5.60;2.40;;;;;;;8.96;65.03;97748.89;105755;1279;24246;-77
2022/04/06 02:02:48;;;;;;;6.10;2.00;;;;;;;8.96;65.02;97748.54;105731;1279;22721;-77
2022/04/06 02:05:16;;;;;;;5.30;2.70;;;;;;;8.98;65.11;97749.85;105803;1279;24227;-76
2022/04/06 02:07:46;;;;;;;6.40;2.40;;;;;;;8.99;65.05;97749.39;105747;1278;22672;-77
2022/04/06 02:10:14;;;;;;;6.50;3.30;;;;;;;8.99;65.01;97753.42;105767;1278;22595;-76
2022/04/06 02:12:41;;;;;;;5.90;2.90;;;;;;;8.99;65.14;97752.19;105829;1278;22734;-77
2022/04/06 02:15:10;;;;;;;5.20;2.70;;;;;;;8.99;65.14;97750.05;105735;1278;22613;-76
2022/04/06 02:17:37;;;;;;;5.10;2.80;;;;;;;8.97;65.04;97749.51;105741;1279;23386;-76
2022/04/06 02:20:04;;;;;;;5.20;2.60;;;;;;;8.96;65.20;97745.88;105738;1278;22730;-76
2022/04/06 02:22:31;;;;;;;5.40;2.40;;;;;;;8.97;65.23;97747.71;105798;1278;24252;-76
2022/04/06 02:24:58;;;;;;;5.10;2.30;;;;;;;9.00;65.23;97745.48;105739;1279;24410;-76
2022/04/06 02:27:29;;;;;;;6.00;2.40;;;;;;;9.00;65.18;97744.81;105845;1278;24247;-76
2022/04/06 02:29:59;;;;;;;5.10;2.60;;;;;;;8.99;65.15;97742.20;105873;1279;22557;-77
2022/04/06 02:32:25;;;;;;;4.50;2.10;;;;;;;8.99;65.17;97746.67;105750;1278;22558;-76
2022/04/06 02:34:52;;;;;;;3.60;1.90;;;;;;;8.99;65.19;97744.37;105702;1279;22737;-76
2022/04/06 02:37:19;;;;;;;5.50;2.40;;;;;;;9.00;65.06;97744.26;105696;1281;24243;-76
2022/04/06 02:39:45;;;;;;;4.60;2.50;;;;;;;9.01;65.02;97743.10;105727;1278;22559;-77
2022/04/06 02:42:12;;;;;;;6.20;3.30;;;;;;;9.01;65.12;97742.60;105706;1278;22674;-76
2022/04/06 02:44:39;;;;;;;9.20;5.20;;;;;;;8.98;65.06;97744.61;105720;1278;22551;-77
2022/04/06 02:47:06;;;;;;;6.90;4.20;;;;;;;8.94;65.09;97738.77;105731;1278;24281;-76
2022/04/06 02:49:38;;;;;;;6.20;3.40;;;;;;;8.89;65.09;97741.45;105706;1278;22540;-76
2022/04/06 02:52:13;;;;;;;6.90;3.70;;;;;;;8.84;65.01;97744.92;105822;1278;23426;-76
2022/04/06 02:54:40;;;;;;;6.80;4.10;;;;;;;8.79;65.23;97742.20;105716;1278;25380;-76
2022/04/06 02:57:07;;;;;;;6.80;4.30;;;;;;;8.76;65.34;97739.27;105779;1278;22993;-76
2022/04/06 02:59:33;;;;;;;7.30;4.50;;;;;;;8.75;65.35;97737.73;105738;1278;22544;-78
2022/04/06 03:02:00;;;;;;;7.50;4.30;;;;;;;8.73;65.35;97733.52;105706;1278;22719;-76
2022/04/06 03:04:27;;;;;;;7.20;4.40;;;;;;;8.70;65.44;97733.69;105697;1278;25260;-76
2022/04/06 03:06:54;;;;;;;9.50;5.30;;;;;;;8.69;65.47;97727.23;105718;1278;23784;-76
2022/04/06 03:09:21;;;;;;;7.80;4.80;;;;;;;8.68;65.50;97728.08;105719;1278;22756;-77
2022/04/06 03:11:47;;;;;;;7.80;4.60;;;;;;;8.65;65.48;97730.72;105729;1278;22553;-77
2022/04/06 03:14:14;;;;;;;7.90;4.70;;;;;;;8.62;65.47;97729.61;105572;1279;22556;-75
2022/04/06 03:16:41;;;;;;;8.00;4.70;;;;;;;8.58;65.75;97732.08;105639;1278;24247;-77
2022/04/06 03:19:09;;;;;;;8.60;5.00;;;;;;;8.59;65.64;97728.66;105826;1278;25381;-77
2022/04/06 03:21:35;;;;;;;9.10;5.30;;;;;;;8.60;65.62;97724.48;105732;1278;22541;-77
2022/04/06 03:24:02;;;;;;;8.40;5.20;;;;;;;8.60;65.62;97721.63;105743;1278;25594;-77
2022/04/06 03:26:29;;;;;;;9.10;5.80;;;;;;;8.61;65.53;97723.11;105722;1278;24187;-77
2022/04/06 03:28:57;;;;;;;9.30;6.20;;;;;;;8.62;65.64;97724.87;105748;1278;22573;-76
2022/04/06 03:31:25;;;;;;;8.90;6.00;;;;;;;8.60;65.79;97721.96;105824;1281;24446;-77
2022/04/06 03:33:51;;;;;;;10.30;6.90;;;;;;;8.61;65.51;97722.40;105687;1279;26540;-77
2022/04/06 03:36:18;;;;;;;10.00;6.50;;;;;;;8.61;65.49;97722.80;105760;1279;24273;-77
2022/04/06 03:38:45;;;;;;;10.10;6.80;;;;;;;8.61;65.54;97726.89;105742;1278;22691;-77
2022/04/06 03:41:12;;;;;;;9.40;6.40;;;;;;;8.61;65.66;97722.98;105652;1278;22553;-77
2022/04/06 03:43:39;;;;;;;9.30;6.10;;;;;;;8.61;65.51;97727.54;105563;1278;25275;-77
2022/04/06 03:46:06;;;;;;;8.80;5.90;;;;;;;8.62;65.61;97723.76;105703;1278;22527;-77
2022/04/06 03:48:32;;;;;;;10.90;7.20;;;;;;;8.65;65.62;97725.30;105733;1278;22557;-78
2022/04/06 03:50:59;;;;;;;10.20;6.60;;;;;;;8.67;65.57;97727.60;105751;1278;26155;-77
2022/04/06 03:53:26;;;;;;;9.20;6.30;;;;;;;8.67;65.67;97727.07;105751;1278;24308;-77
2022/04/06 03:55:53;;;;;;;9.70;5.80;;;;;;;8.68;65.60;97728.22;105691;1279;25319;-77
2022/04/06 03:58:20;;;;;;;9.20;5.20;;;;;;;8.70;65.51;97728.61;105740;1278;23862;-76
2022/04/06 04:00:46;;;;;;;8.00;5.10;;;;;;;8.72;65.60;97729.65;105602;1278;22570;-77
2022/04/06 04:03:13;;;;;;;8.80;5.20;;;;;;;8.76;65.47;97728.82;105478;1278;24305;-76
2022/04/06 04:05:40;;;;;;;9.20;5.40;;;;;;;8.81;65.65;97725.88;105720;1278;22547;-78
2022/04/06 04:08:07;;;;;;;9.60;5.70;;;;;;;8.86;65.54;97729.63;105711;1278;22533;-77
2022/04/06 04:10:34;;;;;;;9.50;5.20;;;;;;;8.91;65.67;97731.55;105734;1278;25379;-76
2022/04/06 04:13:00;;;;;;;8.50;4.70;;;;;;;8.94;65.62;97730.73;105751;1278;23292;-77
2022/04/06 04:15:27;;;;;;;8.40;4.70;;;;;;;8.97;65.60;97730.57;105740;1278;23321;-77
2022/04/06 04:17:54;;;;;;;8.10;4.40;;;;;;;8.97;65.66;97731.25;105758;1278;24856;-76
2022/04/06 04:20:21;;;;;;;5.90;2.80;;;;;;;8.97;65.60;97729.99;105707;1279;22548;-79
2022/04/06 04:22:47;;;;;;;8.00;2.90;;;;;;;8.96;65.41;97730.98;105711;1278;25380;-77
2022/04/06 04:25:14;;;;;;;6.50;2.80;;;;;;;8.92;65.63;97735.51;105664;1279;22562;-76
2022/04/06 04:27:41;;;;;;;7.10;2.80;;;;;;;8.89;65.46;97738.81;105733;1279;22557;-77
2022/04/06 04:30:09;;;;;;;5.70;2.60;;;;;;;8.85;65.49;97736.83;105732;1279;22559;-79
2022/04/06 04:32:35;;;;;;;6.60;2.90;;;;;;;8.86;65.49;97738.39;105663;1281;25431;-78
2022/04/06 04:35:05;;;;;;;6.00;2.40;;;;;;;8.86;65.71;97738.20;105688;1279;24334;-79
2022/04/06 04:37:32;;;;;;;6.30;2.90;;;;;;;8.88;65.51;97737.48;105789;1279;22560;-78
2022/04/06 04:39:59;;;;;;;6.10;2.80;;;;;;;8.90;65.56;97738.14;105742;1278;24340;-82
2022/04/06 04:42:26;;;;;;;6.50;3.10;;;;;;;8.90;65.58;97740.16;105722;1278;26528;-81
2022/04/06 04:44:52;;;;;;;6.60;3.20;;;;;;;8.90;65.68;97742.46;105726;1279;24353;-81
2022/04/06 04:47:19;;;;;;;7.00;3.30;;;;;;;8.92;65.66;97738.25;105848;1278;22554;-80
2022/04/06 04:49:46;;;;;;;8.80;4.10;;;;;;;8.94;65.76;97738.52;105722;1278;22561;-81
2022/04/06 04:52:13;;;;;;;7.70;4.30;;;;;;;8.98;65.65;97737.94;105694;1279;25656;-81
2022/04/06 04:54:40;;;;;;;8.40;4.50;;;;;;;9.03;65.73;97739.77;105709;1278;23113;-79
2022/04/06 04:57:07;;;;;;;11.00;4.40;;;;;;;9.07;65.64;97743.52;105668;1279;24267;-79
2022/04/06 04:59:33;;;;;;;7.80;3.60;;;;;;;9.10;65.51;97744.45;105712;1280;22568;-79
2022/04/06 05:02:00;;;;;;;7.70;3.50;;;;;;;9.12;65.45;97742.12;105763;1279;22551;-80
2022/04/06 05:04:27;;;;;;;6.80;2.70;;;;;;;9.17;65.68;97748.61;105737;1278;23213;-79
2022/04/06 05:06:53;;;;;;;7.20;3.30;;;;;;;9.21;65.55;97747.02;105663;1279;22534;-80
2022/04/06 05:09:20;;;;;;;6.30;2.60;;;;;;;9.23;65.65;97753.78;105756;1278;22527;-80
2022/04/06 05:11:47;;;;;;;6.50;2.80;;;;;;;9.24;65.53;97752.80;105653;1279;22552;-81
2022/04/06 05:14:14;;;;;;;7.50;3.10;;;;;;;9.20;65.35;97757.46;105787;1278;22547;-79
2022/04/06 05:16:40;;;;;;;9.20;3.50;;;;;;;9.16;65.48;97758.48;105757;1278;25260;-81
2022/04/06 05:19:07;;;;;;;6.90;2.30;;;;;;;9.16;65.59;97762.08;105751;1279;25263;-80
2022/04/06 05:21:34;;;;;;;7.30;3.10;;;;;;;9.18;65.53;97761.86;105750;1278;22548;-81
2022/04/06 05:24:04;;;;;;;6.10;2.30;;;;;;;9.19;65.66;97767.83;105665;1279;22554;-82
2022/04/06 05:26:31;;;;;;;6.60;2.70;;;;;;;9.19;65.56;97771.56;105548;1278;22540;-83
2022/04/06 05:28:58;;;;;;;5.80;2.30;;;;;;;9.19;65.61;97778.69;105671;1278;22666;-85
2022/04/06 05:31:25;;;;;;;6.20;2.20;;;;;;;9.18;65.64;97775.15;105638;1278;24307;-81
2022/04/06 05:33:51;;;;;;;6.00;2.50;;;;;;;9.18;65.61;97779.64;105726;1278;22542;-82
2022/04/06 05:36:18;;;;;;;5.90;2.60;;;;;;;9.18;65.71;97779.61;105722;1278;22550;-83
2022/04/06 05:38:45;;;;;;;7.80;2.90;;;;;;;9.21;65.76;97782.73;105829;1278;24307;-80
2022/04/06 05:41:12;;;;;;;7.10;2.90;;;;;;;9.25;65.71;97784.19;105729;1279;25384;-81
2022/04/06 05:43:39;;;;;;;8.10;3.10;;;;;;;9.26;65.64;97783.06;105781;1278;24790;-80
2022/04/06 05:46:06;;;;;;;10.20;3.90;;;;;;;9.25;65.70;97785.98;105667;1279;22556;-81
2022/04/06 05:48:34;;;;;;;10.00;4.30;;;;;;;9.26;65.64;97788.55;105739;1278;22560;-81
2022/04/06 05:51:01;;;;;;;14.60;7.40;;;;;;;9.28;65.59;97791.73;105739;1278;22571;-81
2022/04/06 05:53:28;;;;;;;15.50;7.00;;;;;;;9.27;65.79;97793.73;105690;1278;25593;-81
2022/04/06 05:55:54;;;;;;;11.90;5.90;;;;;;;9.28;65.69;97796.02;105622;1279;23946;-81
2022/04/06 05:58:21;;;;;;;11.30;5.70;;;;;;;9.29;65.85;97800.38;105702;1279;22540;-80
2022/04/06 06:00:48;;;;;;;10.20;4.70;;;;;;;9.32;65.81;97803.95;105768;1278;25278;-83
2022/04/06 06:03:14;;;;;;;12.00;4.60;;;;;;;9.39;65.93;97808.04;105661;1278;25540;-84
2022/04/06 06:05:41;;;;;;;14.40;6.80;;;;;;;9.45;65.84;97807.13;105539;1279;22597;-80
2022/04/06 06:08:09;;;;;;;23.70;11.60;;;;;;;9.53;65.81;97808.95;105696;1278;22550;-84
2022/04/06 06:10:37;;;;;;;19.10;8.80;;;;;;;9.60;65.79;97807.23;105691;1279;25278;-84
2022/04/06 06:13:04;;;;;;;17.50;7.20;;;;;;;9.65;65.75;97806.60;105760;1278;22553;-77
2022/04/06 06:15:30;;;;;;;15.30;7.40;;;;;;;9.70;65.60;97802.62;105732;1278;25246;-84
2022/04/06 06:17:57;;;;;;;21.70;9.90;;;;;;;9.74;65.72;97798.67;105740;1278;22664;-83
2022/04/06 06:20:24;;;;;;;22.70;10.90;;;;;;;9.76;65.60;97798.11;105684;1279;22620;-83
2022/04/06 06:22:50;;;;;;;24.00;11.90;;;;;;;9.78;65.64;97794.64;105750;1278;22547;-84
2022/04/06 06:25:17;;;;;;;20.60;10.40;;;;;;;9.81;65.57;97798.77;105698;1279;25279;-84
2022/04/06 06:27:46;;;;;;;17.40;8.60;;;;;;;9.88;65.57;97799.38;105738;1278;22652;-85
2022/04/06 06:30:13;;;;;;;17.10;8.40;;;;;;;9.93;65.53;97799.52;105761;1278;22569;-84
2022/04/06 06:32:41;;;;;;;15.90;7.10;;;;;;;9.96;65.64;97798.16;105835;1278;24411;-83
2022/04/06 06:35:08;;;;;;;10.40;5.40;;;;;;;9.98;65.59;97796.00;105932;1279;22550;-85
2022/04/06 06:37:35;;;;;;;11.00;5.00;;;;;;;10.02;65.60;97794.39;105720;1279;24443;-83
2022/04/06 06:40:03;;;;;;;11.80;5.10;;;;;;;10.07;65.55;97798.81;105869;1278;22614;-84
2022/04/06 06:42:30;;;;;;;13.00;4.70;;;;;;;10.10;65.48;97794.77;105775;1279;22612;-83
2022/04/06 06:44:57;;;;;;;12.60;5.70;;;;;;;10.15;65.40;97792.39;105726;1279;25395;-81
2022/04/06 06:47:24;;;;;;;17.30;7.50;;;;;;;10.20;65.34;97794.55;105744;1279;23652;-83
2022/04/06 06:49:51;;;;;;;16.00;5.90;;;;;;;10.27;65.31;97793.23;105719;1279;24374;-81
2022/04/06 06:52:18;;;;;;;13.30;5.30;;;;;;;10.34;65.64;97797.56;105735;1278;22552;-83
2022/04/06 06:54:45;;;;;;;12.00;5.00;;;;;;;10.38;65.47;97795.21;105717;1278;23214;-83
2022/04/06 06:57:12;;;;;;;12.50;5.10;;;;;;;10.51;65.39;97793.39;105763;1279;22556;-83
2022/04/06 06:59:38;;;;;;;15.20;5.80;;;;;;;10.65;65.29;97792.23;105689;1279;22559;-83
2022/04/06 07:02:06;;;;;;;15.90;6.60;;;;;;;10.73;65.19;97793.65;105729;1278;25389;-86
2022/04/06 07:04:33;;;;;;;9.30;4.00;;;;;;;10.80;65.08;97786.26;105776;1278;25250;-82
2022/04/06 07:06:59;;;;;;;9.30;4.20;;;;;;;10.85;64.88;97782.89;105840;1279;22855;-84
2022/04/06 07:09:26;;;;;;;9.20;4.10;;;;;;;10.91;65.25;97783.09;105782;1278;25329;-82
2022/04/06 07:11:53;;;;;;;8.60;3.70;;;;;;;11.00;65.36;97779.70;105793;1278;25266;-83
2022/04/06 07:14:20;;;;;;;8.50;3.30;;;;;;;11.12;65.19;97782.16;105728;1278;24448;-81
2022/04/06 07:16:47;;;;;;;9.20;3.90;;;;;;;11.27;64.99;97785.02;105674;1279;24327;-80
2022/04/06 07:19:14;;;;;;;9.20;3.60;;;;;;;11.31;64.89;97784.20;105772;1278;22540;-80
2022/04/06 07:21:41;;;;;;;11.00;4.80;;;;;;;11.32;64.84;97785.03;105747;1278;25269;-78
2022/04/06 07:24:08;;;;;;;8.80;4.00;;;;;;;11.31;64.91;97784.20;105689;1278;22537;-78
2022/04/06 07:26:34;;;;;;;10.70;4.70;;;;;;;11.31;64.78;97786.23;105643;1279;25245;-79
2022/04/06 07:29:01;;;;;;;8.90;3.40;;;;;;;11.29;64.60;97789.06;105688;1279;22530;-78
2022/04/06 07:31:28;;;;;;;9.50;4.10;;;;;;;11.24;64.72;97781.87;105635;1278;22712;-78
2022/04/06 07:33:55;;;;;;;7.80;3.30;;;;;;;11.25;64.58;97791.79;105741;1278;22539;-83
2022/04/06 07:36:22;;;;;;;13.20;4.90;;;;;;;11.29;64.77;97794.41;105717;1279;22577;-80
2022/04/06 07:38:50;;;;;;;12.90;4.90;;;;;;;11.33;64.65;97792.77;105746;1278;26320;-77
2022/04/06 07:41:17;;;;;;;10.60;3.70;;;;;;;11.37;64.52;97797.35;105921;1278;23089;-79
2022/04/06 07:43:45;;;;;;;13.00;5.80;;;;;;;11.42;64.51;97794.25;105854;1278;26548;-80
2022/04/06 07:46:12;;;;;;;13.10;4.50;;;;;;;11.49;64.39;97797.98;105877;1279;22527;-80
2022/04/06 07:48:41;;;;;;;12.30;4.70;;;;;;;11.56;64.47;97791.52;105868;1278;22732;-79
2022/04/06 07:51:08;;;;;;;14.80;6.70;;;;;;;11.57;64.23;97794.23;105922;1278;24433;-80
2022/04/06 07:53:35;;;;;;;27.60;9.30;;;;;;;11.59;64.32;97793.98;105858;1279;22544;-80
2022/04/06 07:56:02;;;;;;;22.10;9.80;;;;;;;11.73;64.37;97794.31;105761;1278;24313;-80
2022/04/06 07:58:29;;;;;;;14.30;6.90;;;;;;;11.89;64.24;97798.29;105809;1278;25597;-79
2022/04/06 08:01:08;;;;;;;9.40;4.20;;;;;;;11.94;64.12;97799.09;105750;1278;25318;-80
2022/04/06 08:03:37;;;;;;;6.80;3.00;;;;;;;11.99;64.04;97801.77;105812;1278;25263;-81
2022/04/06 08:06:05;;;;;;;11.70;3.20;;;;;;;11.99;63.82;97792.37;105797;1278;22547;-80
2022/04/06 08:08:33;;;;;;;8.50;3.20;;;;;;;11.97;63.75;97792.50;105812;1278;22940;-80
2022/04/06 08:11:00;;;;;;;7.30;3.30;;;;;;;11.96;63.68;97795.09;105842;1279;25242;-80
2022/04/06 08:13:27;;;;;;;7.70;3.90;;;;;;;11.96;63.59;97790.11;106096;1278;22697;-78
2022/04/06 08:15:54;;;;;;;8.40;3.60;;;;;;;12.03;63.80;97794.59;107237;1278;22582;-79
2022/04/06 08:18:22;;;;;;;8.60;3.80;;;;;;;12.12;63.83;97789.95;107230;1279;22576;-79
2022/04/06 08:20:49;;;;;;;8.30;3.30;;;;;;;12.23;63.67;97790.33;107029;1279;22733;-80
2022/04/06 08:23:17;;;;;;;7.60;3.10;;;;;;;12.34;63.53;97792.60;107090;1278;22536;-81
2022/04/06 08:25:44;;;;;;;7.10;3.20;;;;;;;12.40;63.50;97791.27;105742;1279;22547;-82
2022/04/06 08:28:10;;;;;;;8.30;4.10;;;;;;;12.47;63.37;97794.48;105779;1279;25530;-81
2022/04/06 08:30:42;;;;;;;9.10;3.90;;;;;;;12.53;63.34;97798.35;105610;1279;23146;-81
2022/04/06 08:33:10;;;;;;;11.60;4.00;;;;;;;12.57;63.13;97799.73;105651;1278;23540;-81
2022/04/06 08:35:38;;;;;;;8.80;3.90;;;;;;;12.57;63.20;97804.23;105768;1278;25316;-81
2022/04/06 08:38:05;;;;;;;9.80;3.60;;;;;;;12.62;63.04;97807.23;105685;1282;22557;-82
2022/04/06 08:40:33;;;;;;;11.10;4.50;;;;;;;12.59;63.04;97804.36;105808;1278;25274;-80
2022/04/06 08:43:01;;;;;;;10.20;4.30;;;;;;;12.55;63.02;97803.52;105738;1279;23072;-81
2022/04/06 08:45:28;;;;;;;8.90;4.00;;;;;;;12.57;63.02;97804.07;105744;1278;22915;-81
2022/04/06 08:47:57;;;;;;;8.60;4.20;;;;;;;12.63;63.04;97805.53;105686;1279;22538;-81
2022/04/06 08:50:27;;;;;;;11.40;4.80;;;;;;;12.71;63.07;97807.64;105718;1279;25363;-81
2022/04/06 08:52:57;;;;;;;11.50;4.40;;;;;;;12.79;62.96;97811.66;105761;1279;22579;-79
2022/04/06 08:55:24;;;;;;;10.50;4.30;;;;;;;12.85;62.83;97811.27;105801;1279;22554;-79
2022/04/06 08:57:51;;;;;;;9.00;3.80;;;;;;;12.87;62.81;97808.66;105662;1279;22539;-80
2022/04/06 09:00:18;;;;;;;10.60;4.90;;;;;;;12.93;62.73;97809.33;105844;1279;22569;-79
2022/04/06 09:02:46;;;;;;;10.10;4.50;;;;;;;12.97;62.60;97813.88;105800;1279;22499;-79
2022/04/06 09:05:13;;;;;;;9.20;4.00;;;;;;;12.94;62.44;97809.23;105688;1279;24341;-80
2022/04/06 09:07:41;;;;;;;10.40;4.20;;;;;;;12.87;62.45;97818.91;105741;1278;23398;-80
2022/04/06 09:10:09;;;;;;;7.90;3.80;;;;;;;12.80;62.38;97818.88;105775;1279;24108;-79
2022/04/06 09:12:35;;;;;;;9.00;3.60;;;;;;;12.80;62.46;97820.16;105782;1279;22575;-79
2022/04/06 09:15:13;;;;;;;7.80;3.00;;;;;;;12.77;62.31;97825.48;105696;1279;22556;-80
2022/04/06 09:17:47;;;;;;;7.90;3.20;;;;;;;12.65;62.19;97828.22;105778;1278;22635;-79
2022/04/06 09:20:16;;;;;;;9.20;5.10;;;;;;;12.48;62.18;97834.59;105819;1279;24369;-79
2022/04/06 09:22:43;;;;;;;9.60;4.50;;;;;;;12.33;62.24;97827.98;105730;1279;22581;-80
2022/04/06 09:25:13;;;;;;;13.00;5.30;;;;;;;12.26;62.32;97828.34;105748;1279;24246;-79
2022/04/06 09:27:41;;;;;;;10.80;5.60;;;;;;;12.21;62.39;97830.15;105821;1278;22539;-80
2022/04/06 09:30:09;;;;;;;14.10;6.70;;;;;;;12.13;62.37;97842.10;105808;1279;25359;-79
2022/04/06 09:32:36;;;;;;;13.10;6.20;;;;;;;12.03;62.18;97837.42;105760;1279;25357;-80
2022/04/06 09:35:26;;;;;;;11.00;4.50;;;;;;;11.96;62.35;97836.30;105698;1279;25522;-79
2022/04/06 09:38:19;;;;;;;12.10;6.60;;;;;;;11.92;62.36;97828.29;105676;1281;25288;-80
2022/04/06 09:40:46;;;;;;;14.10;6.40;;;;;;;11.88;62.41;97830.41;105805;1278;22563;-80
2022/04/06 09:43:29;;;;;;;16.40;8.50;;;;;;;11.88;62.57;97830.67;105760;1279;25449;-81
2022/04/06 09:49:05;;;;;;;11.20;5.60;;;;;;;11.92;62.70;97831.38;105667;1281;22564;-79
2022/04/06 09:51:32;;;;;;;12.30;4.50;;;;;;;12.07;62.78;97825.05;105849;1278;22554;-79
2022/04/06 09:54:03;;;;;;;10.60;4.70;;;;;;;12.27;62.79;97817.20;105610;1281;22553;-78
2022/04/06 09:56:32;;;;;;;18.30;8.50;;;;;;;12.52;62.73;97816.18;105695;1279;22631;-80
2022/04/06 09:58:59;;;;;;;18.30;7.30;;;;;;;12.79;62.76;97811.23;105706;1279;25292;-79
2022/04/06 10:01:32;;;;;;;9.70;4.50;;;;;;;13.05;62.74;97808.08;105745;1281;22686;-81
2022/04/06 10:04:03;;;;;;;10.50;4.30;;;;;;;13.24;62.64;97804.76;105799;1279;22553;-81
2022/04/06 10:06:33;;;;;;;7.80;3.30;;;;;;;13.42;62.64;97796.98;105713;1279;24328;-79
2022/04/06 10:09:03;;;;;;;7.90;3.20;;;;;;;13.59;62.42;97797.41;105807;1279;25625;-79
2022/04/06 10:11:32;;;;;;;9.20;3.40;;;;;;;13.66;62.25;97796.77;105771;1279;25556;-81
2022/04/06 10:14:00;;;;;;;7.20;3.10;;;;;;;13.70;62.21;97795.47;105770;1278;22771;-80
2022/04/06 10:16:28;;;;;;;7.60;3.30;;;;;;;13.74;62.09;97793.98;105723;1279;22555;-80
2022/04/06 10:18:57;;;;;;;9.10;4.10;;;;;;;13.77;62.23;97793.65;105726;1279;24245;-79
2022/04/06 10:21:55;;;;;;;9.60;4.60;;;;;;;13.86;62.14;97792.95;105732;1279;23931;-80
2022/04/06 10:24:54;;;;;;;8.40;3.30;;;;;;;13.96;61.93;97784.35;105776;1279;22537;-79
2022/04/06 10:27:26;;;;;;;8.40;3.70;;;;;;;14.03;61.67;97781.36;105754;1279;22686;-79
2022/04/06 10:30:08;;;;;;;10.80;4.40;;;;;;;14.01;61.45;97777.39;105737;1278;22557;-81
2022/04/06 10:32:37;;;;;;;9.40;3.70;;;;;;;13.91;61.51;97784.75;105646;1278;22537;-80
2022/04/06 10:35:30;;;;;;;9.60;4.90;;;;;;;13.76;61.42;97783.99;105720;1279;25329;-80
2022/04/06 10:37:58;;;;;;;10.40;5.50;;;;;;;13.53;61.46;97783.54;105782;1278;22583;-81
2022/04/06 10:40:31;;;;;;;11.40;5.60;;;;;;;13.34;61.55;97772.68;105772;1279;24259;-81
2022/04/06 10:42:58;;;;;;;9.30;5.00;;;;;;;13.30;61.67;97777.00;105789;1279;24298;-80
2022/04/06 10:45:34;;;;;;;30.80;21.70;;;;;;;13.30;61.52;97770.02;105766;1279;25134;-83
2022/04/06 10:48:14;;;;;;;17.90;6.90;;;;;;;13.22;61.48;97766.31;105817;1279;23243;-81
2022/04/06 10:50:43;;;;;;;12.30;4.80;;;;;;;13.14;61.37;97763.56;105727;1279;22549;-81
2022/04/06 10:53:39;;;;;;;11.80;5.40;;;;;;;13.09;61.39;97761.10;105760;1279;24302;-80
2022/04/06 10:56:16;;;;;;;12.90;4.60;;;;;;;13.11;61.38;97757.13;105446;1281;23058;-84
2022/04/06 10:59:19;;;;;;;11.90;5.10;;;;;;;13.13;61.40;97757.61;105728;1279;22528;-81
2022/04/06 11:01:48;;;;;;;9.50;4.20;;;;;;;13.13;61.40;97754.54;105585;1281;24300;-81
2022/04/06 11:04:23;;;;;;;8.80;4.00;;;;;;;13.10;61.09;97753.27;105830;1279;25505;-81
2022/04/06 11:06:56;;;;;;;11.10;4.10;;;;;;;13.02;61.11;97749.14;105763;1278;24329;-80
2022/04/06 11:12:25;;;;;;;9.80;3.90;;;;;;;12.82;61.04;97748.36;105779;1279;22560;-79
2022/04/06 11:15:18;;;;;;;8.70;3.50;;;;;;;12.71;60.96;97747.45;105818;1278;22554;-81
2022/04/06 11:17:45;;;;;;;7.90;4.10;;;;;;;12.63;60.93;97748.05;105705;1281;25353;-82
2022/04/06 11:20:17;;;;;;;10.90;4.70;;;;;;;12.59;61.01;97747.44;105761;1279;22716;-79
2022/04/06 11:22:50;;;;;;;9.30;4.40;;;;;;;12.61;61.10;97746.52;105718;1281;22576;-81
2022/04/06 11:25:20;;;;;;;18.00;8.30;;;;;;;12.64;61.07;97752.27;105752;1279;22577;-81
2022/04/06 11:27:48;;;;;;;17.30;8.40;;;;;;;12.65;60.93;97752.48;105812;1278;25263;-81
2022/04/06 11:30:22;;;;;;;14.70;6.40;;;;;;;12.69;60.90;97750.88;105936;1279;24281;-79
2022/04/06 11:32:57;;;;;;;13.10;6.10;;;;;;;12.72;60.80;97745.77;105762;1279;24340;-80
2022/04/06 11:35:29;;;;;;;10.70;5.10;;;;;;;12.73;60.74;97741.61;105785;1278;23759;-80
2022/04/06 11:37:56;;;;;;;14.60;6.20;;;;;;;12.77;60.70;97740.65;105836;1279;25397;-82
2022/04/06 11:40:25;;;;;;;10.20;4.80;;;;;;;12.83;60.77;97742.11;105772;1279;22543;-80
2022/04/06 11:42:54;;;;;;;15.10;7.10;;;;;;;12.93;60.62;97737.89;105959;1279;22528;-80